sensor_id;sensor_type;location;lat;lon;timestamp;pressure;altitude;pressure_sealevel;temperature;humidity
22830;BME280;11581;51.250;6.778;2022-11-20T00:01:04;100706.66;;;6.88;64.58
22830;BME280;11581;51.250;6.778;2022-11-20T00:03:32;100868.97;;;7.88;65.37
22830;BME280;11581;51.250;6.778;2022-11-20T00:06:02;100838.66;;;7.70;64.84
22830;BME280;11581;51.250;6.778;2022-11-20T00:08:33;100842.88;;;7.73;65.08
22830;BME280;11581;51.250;6.778;2022-11-20T00:11:03;100859.22;;;7.89;64.44
22830;BME280;11581;51.250;6.778;2022-11-20T00:13:32;100877.66;;;7.90;64.63
22830;BME280;11581;51.250;6.778;2022-11-20T00:16:00;100841.38;;;7.80;65.37
22830;BME280;11581;51.250;6.778;2022-11-20T00:18:27;100867.91;;;7.91;65.20
22830;BME280;11581;51.250;6.778;2022-11-20T00:21:01;100768.47;;;7.32;63.93
22830;BME280;11581;51.250;6.778;2022-11-20T00:23:28;100869.56;;;7.92;65.26
22830;BME280;11581;51.250;6.778;2022-11-20T00:25:55;100861.88;;;7.89;64.86
22830;BME280;11581;51.250;6.778;2022-11-20T00:28:22;100832.38;;;7.71;64.88
22830;BME280;11581;51.250;6.778;2022-11-20T00:30:54;100812.63;;;7.64;64.81
22830;BME280;11581;51.250;6.778;2022-11-20T00:33:26;100865.25;;;7.91;65.19
22830;BME280;11581;51.250;6.778;2022-11-20T00:35:53;100712.66;;;7.02;64.72
22830;BME280;11581;51.250;6.778;2022-11-20T00:38:20;100860.06;;;7.89;64.57
22830;BME280;11581;51.250;6.778;2022-11-20T00:40:54;100862.84;;;7.88;63.33
22830;BME280;11581;51.250;6.778;2022-11-20T00:43:21;100715.16;;;7.03;65.02
22830;BME280;11581;51.250;6.778;2022-11-20T00:45:50;100863.78;;;7.87;64.47
22830;BME280;11581;51.250;6.778;2022-11-20T00:48:18;100812.53;;;7.55;64.67
22830;BME280;11581;51.250;6.778;2022-11-20T00:50:46;100854.41;;;7.83;64.15
22830;BME280;11581;51.250;6.778;2022-11-20T00:53:13;100792.06;;;7.46;64.39
22830;BME280;11581;51.250;6.778;2022-11-20T00:55:40;100830.91;;;7.47;64.57
22830;BME280;11581;51.250;6.778;2022-11-20T00:58:09;100851.56;;;7.75;64.69
22830;BME280;11581;51.250;6.778;2022-11-20T01:00:37;100852.50;;;7.74;64.89
22830;BME280;11581;51.250;6.778;2022-11-20T01:03:05;100850.69;;;7.74;64.21
22830;BME280;11581;51.250;6.778;2022-11-20T01:05:36;100833.88;;;7.53;64.70
22830;BME280;11581;51.250;6.778;2022-11-20T01:08:05;100647.47;;;6.56;63.77
22830;BME280;11581;51.250;6.778;2022-11-20T01:10:31;100803.75;;;7.43;64.22
22830;BME280;11581;51.250;6.778;2022-11-20T01:13:01;100851.81;;;7.72;63.82
22830;BME280;11581;51.250;6.778;2022-11-20T01:15:45;100823.00;;;7.56;64.24
22830;BME280;11581;51.250;6.778;2022-11-20T01:18:16;100772.13;;;7.20;64.10
22830;BME280;11581;51.250;6.778;2022-11-20T01:20:43;100860.16;;;7.67;64.37
22830;BME280;11581;51.250;6.778;2022-11-20T01:23:10;100775.72;;;7.30;64.35
22830;BME280;11581;51.250;6.778;2022-11-20T01:25:37;100680.22;;;6.66;64.32
22830;BME280;11581;51.250;6.778;2022-11-20T01:28:05;100838.00;;;7.57;64.06
22830;BME280;11581;51.250;6.778;2022-11-20T01:30:33;100662.44;;;6.46;64.27
22830;BME280;11581;51.250;6.778;2022-11-20T01:33:00;100789.00;;;7.19;64.67
22830;BME280;11581;51.250;6.778;2022-11-20T01:35:29;100750.44;;;6.83;64.15
22830;BME280;11581;51.250;6.778;2022-11-20T01:37:56;100642.72;;;6.28;64.59
22830;BME280;11581;51.250;6.778;2022-11-20T01:40:25;100732.56;;;6.85;64.82
22830;BME280;11581;51.250;6.778;2022-11-20T01:42:58;100833.81;;;7.44;64.40
22830;BME280;11581;51.250;6.778;2022-11-20T01:46:12;100776.28;;;7.02;63.46
22830;BME280;11581;51.250;6.778;2022-11-20T01:48:40;100832.81;;;7.45;64.45
22830;BME280;11581;51.250;6.778;2022-11-20T01:51:16;100834.25;;;7.49;64.53
22830;BME280;11581;51.250;6.778;2022-11-20T01:53:43;100727.88;;;6.77;65.38
22830;BME280;11581;51.250;6.778;2022-11-20T01:56:13;100830.66;;;7.50;65.17
22830;BME280;11581;51.250;6.778;2022-11-20T01:58:49;100723.66;;;6.86;64.06
22830;BME280;11581;51.250;6.778;2022-11-20T02:01:18;100826.03;;;7.52;65.13
22830;BME280;11581;51.250;6.778;2022-11-20T02:03:47;100783.22;;;7.25;65.07
22830;BME280;11581;51.250;6.778;2022-11-20T02:06:19;100759.63;;;7.11;63.77
22830;BME280;11581;51.250;6.778;2022-11-20T02:08:50;100822.69;;;7.50;64.77
22830;BME280;11581;51.250;6.778;2022-11-20T02:11:18;100714.00;;;6.85;65.25
22830;BME280;11581;51.250;6.778;2022-11-20T02:13:46;100671.78;;;6.61;65.00
22830;BME280;11581;51.250;6.778;2022-11-20T02:16:19;100819.44;;;7.46;65.00
22830;BME280;11581;51.250;6.778;2022-11-20T02:18:48;100817.63;;;7.47;65.35
22830;BME280;11581;51.250;6.778;2022-11-20T02:21:37;100762.50;;;7.19;63.97
22830;BME280;11581;51.250;6.778;2022-11-20T02:24:10;100811.34;;;7.48;64.88
22830;BME280;11581;51.250;6.778;2022-11-20T02:26:42;100803.25;;;7.49;65.21
22830;BME280;11581;51.250;6.778;2022-11-20T02:29:11;100695.19;;;6.88;65.54
22830;BME280;11581;51.250;6.778;2022-11-20T02:31:40;100591.56;;;6.28;65.08
22830;BME280;11581;51.250;6.778;2022-11-20T02:34:07;100792.41;;;7.52;65.39
22830;BME280;11581;51.250;6.778;2022-11-20T02:36:38;100780.72;;;7.44;65.08
22830;BME280;11581;51.250;6.778;2022-11-20T02:39:06;100777.47;;;7.40;65.62
22830;BME280;11581;51.250;6.778;2022-11-20T02:41:36;100779.06;;;7.43;65.11
22830;BME280;11581;51.250;6.778;2022-11-20T02:44:04;100798.56;;;7.53;65.64
22830;BME280;11581;51.250;6.778;2022-11-20T02:46:32;100796.19;;;7.39;65.62
22830;BME280;11581;51.250;6.778;2022-11-20T02:49:01;100734.78;;;7.12;65.35
22830;BME280;11581;51.250;6.778;2022-11-20T02:51:28;100724.44;;;7.09;65.40
22830;BME280;11581;51.250;6.778;2022-11-20T02:53:55;100793.25;;;7.53;65.76
22830;BME280;11581;51.250;6.778;2022-11-20T02:56:22;100800.47;;;7.51;65.54
22830;BME280;11581;51.250;6.778;2022-11-20T02:58:50;100793.50;;;7.50;65.50
22830;BME280;11581;51.250;6.778;2022-11-20T03:01:18;100789.13;;;7.49;65.82
22830;BME280;11581;51.250;6.778;2022-11-20T03:03:45;100786.47;;;7.49;66.08
22830;BME280;11581;51.250;6.778;2022-11-20T03:06:14;100789.00;;;7.50;65.91
22830;BME280;11581;51.250;6.778;2022-11-20T03:08:41;100769.91;;;7.36;65.72
22830;BME280;11581;51.250;6.778;2022-11-20T03:11:11;100789.88;;;7.51;65.92
22830;BME280;11581;51.250;6.778;2022-11-20T03:13:38;100743.91;;;7.30;65.69
22830;BME280;11581;51.250;6.778;2022-11-20T03:16:21;100753.31;;;7.23;64.12
22830;BME280;11581;51.250;6.778;2022-11-20T03:18:49;100717.09;;;7.01;65.27
22830;BME280;11581;51.250;6.778;2022-11-20T03:21:19;100712.94;;;6.76;65.15
22830;BME280;11581;51.250;6.778;2022-11-20T03:23:47;100743.72;;;7.11;65.05
22830;BME280;11581;51.250;6.778;2022-11-20T03:26:15;100729.28;;;7.04;65.31
22830;BME280;11581;51.250;6.778;2022-11-20T03:28:46;100788.34;;;7.37;64.44
22830;BME280;11581;51.250;6.778;2022-11-20T03:31:16;100733.59;;;7.05;64.79
22830;BME280;11581;51.250;6.778;2022-11-20T03:33:44;100744.59;;;7.00;65.27
22830;BME280;11581;51.250;6.778;2022-11-20T03:36:13;100729.78;;;6.86;64.80
22830;BME280;11581;51.250;6.778;2022-11-20T03:38:41;100786.72;;;7.14;65.04
22830;BME280;11581;51.250;6.778;2022-11-20T03:41:09;100788.06;;;7.09;65.43
22830;BME280;11581;51.250;6.778;2022-11-20T03:43:39;100782.31;;;7.04;65.67
22830;BME280;11581;51.250;6.778;2022-11-20T03:46:06;100323.94;;;4.26;65.62
22830;BME280;11581;51.250;6.778;2022-11-20T03:48:35;100793.41;;;6.98;66.24
22830;BME280;11581;51.250;6.778;2022-11-20T03:51:10;100783.88;;;6.95;65.50
22830;BME280;11581;51.250;6.778;2022-11-20T03:53:37;100760.19;;;6.82;66.48
22830;BME280;11581;51.250;6.778;2022-11-20T03:56:06;100731.53;;;6.65;66.96
22830;BME280;11581;51.250;6.778;2022-11-20T03:58:34;100784.72;;;6.96;67.10
22830;BME280;11581;51.250;6.778;2022-11-20T04:01:06;100736.59;;;6.68;66.59
22830;BME280;11581;51.250;6.778;2022-11-20T04:03:35;100778.47;;;6.97;67.45
22830;BME280;11581;51.250;6.778;2022-11-20T04:06:04;100662.22;;;6.27;67.29
22830;BME280;11581;51.250;6.778;2022-11-20T04:08:31;100704.34;;;6.52;67.68
22830;BME280;11581;51.250;6.778;2022-11-20T04:11:08;100780.84;;;7.00;67.03
22830;BME280;11581;51.250;6.778;2022-11-20T04:13:36;100727.31;;;6.74;68.05
22830;BME280;11581;51.250;6.778;2022-11-20T04:16:04;100773.63;;;7.02;68.06
22830;BME280;11581;51.250;6.778;2022-11-20T04:18:32;100791.22;;;7.03;68.04
22830;BME280;11581;51.250;6.778;2022-11-20T04:21:05;100787.63;;;7.04;68.32
22830;BME280;11581;51.250;6.778;2022-11-20T04:23:33;100688.56;;;6.51;68.76
22830;BME280;11581;51.250;6.778;2022-11-20T04:26:01;100754.13;;;6.92;68.58
22830;BME280;11581;51.250;6.778;2022-11-20T04:28:28;100778.44;;;7.08;68.49
22830;BME280;11581;51.250;6.778;2022-11-20T04:31:02;100770.50;;;7.08;68.04
22830;BME280;11581;51.250;6.778;2022-11-20T04:33:29;100779.16;;;7.10;68.60
22830;BME280;11581;51.250;6.778;2022-11-20T04:36:00;100785.31;;;7.10;67.99
22830;BME280;11581;51.250;6.778;2022-11-20T04:38:29;100800.59;;;7.07;68.09
22830;BME280;11581;51.250;6.778;2022-11-20T04:40:57;100779.16;;;7.10;67.76
22830;BME280;11581;51.250;6.778;2022-11-20T04:43:24;100546.47;;;5.74;67.87
22830;BME280;11581;51.250;6.778;2022-11-20T04:45:51;100798.06;;;7.05;67.21
22830;BME280;11581;51.250;6.778;2022-11-20T04:48:19;100639.84;;;6.09;67.12
22830;BME280;11581;51.250;6.778;2022-11-20T04:50:46;100789.78;;;6.99;67.16
22830;BME280;11581;51.250;6.778;2022-11-20T04:53:13;100726.94;;;6.67;67.13
22830;BME280;11581;51.250;6.778;2022-11-20T04:55:43;100708.19;;;6.48;67.12
22830;BME280;11581;51.250;6.778;2022-11-20T04:58:09;100752.97;;;6.73;67.32
22830;BME280;11581;51.250;6.778;2022-11-20T05:00:36;100779.34;;;6.86;67.42
22830;BME280;11581;51.250;6.778;2022-11-20T05:03:06;100726.97;;;6.56;67.12
22830;BME280;11581;51.250;6.778;2022-11-20T05:05:33;100734.19;;;6.54;67.19
22830;BME280;11581;51.250;6.778;2022-11-20T05:08:01;100776.09;;;6.82;67.44
22830;BME280;11581;51.250;6.778;2022-11-20T05:10:28;100614.69;;;5.71;67.30
22830;BME280;11581;51.250;6.778;2022-11-20T05:12:58;100773.69;;;6.79;66.76
22830;BME280;11581;51.250;6.778;2022-11-20T05:15:25;100796.69;;;6.79;67.25
22830;BME280;11581;51.250;6.778;2022-11-20T05:17:52;100636.03;;;5.91;67.33
22830;BME280;11581;51.250;6.778;2022-11-20T05:20:19;100779.94;;;6.78;67.21
22830;BME280;11581;51.250;6.778;2022-11-20T05:22:46;100780.06;;;6.77;67.51
22830;BME280;11581;51.250;6.778;2022-11-20T05:25:13;100778.25;;;6.77;67.18
22830;BME280;11581;51.250;6.778;2022-11-20T05:27:40;100779.09;;;6.78;67.50
22830;BME280;11581;51.250;6.778;2022-11-20T05:30:12;100778.25;;;6.77;66.60
22830;BME280;11581;51.250;6.778;2022-11-20T05:32:39;100704.84;;;6.24;66.85
22830;BME280;11581;51.250;6.778;2022-11-20T05:35:06;100606.50;;;5.63;66.86
22830;BME280;11581;51.250;6.778;2022-11-20T05:37:34;100491.88;;;4.85;67.18
22830;BME280;11581;51.250;6.778;2022-11-20T05:40:01;100776.00;;;6.73;67.08
22830;BME280;11581;51.250;6.778;2022-11-20T05:42:30;100758.28;;;6.62;66.76
22830;BME280;11581;51.250;6.778;2022-11-20T05:44:57;100772.72;;;6.69;66.93
22830;BME280;11581;51.250;6.778;2022-11-20T05:47:26;100778.28;;;6.66;66.78
22830;BME280;11581;51.250;6.778;2022-11-20T05:49:54;100777.78;;;6.61;67.13
22830;BME280;11581;51.250;6.778;2022-11-20T05:52:22;100774.88;;;6.64;67.39
22830;BME280;11581;51.250;6.778;2022-11-20T05:54:52;100768.88;;;6.62;66.82
22830;BME280;11581;51.250;6.778;2022-11-20T05:57:24;100774.19;;;6.62;66.65
22830;BME280;11581;51.250;6.778;2022-11-20T05:59:51;100771.53;;;6.62;67.43
22830;BME280;11581;51.250;6.778;2022-11-20T06:02:18;100789.34;;;6.60;67.53
22830;BME280;11581;51.250;6.778;2022-11-20T06:04:47;100773.44;;;6.60;66.65
22830;BME280;11581;51.250;6.778;2022-11-20T06:07:14;100770.81;;;6.60;67.05
22830;BME280;11581;51.250;6.778;2022-11-20T06:09:43;100725.31;;;6.33;67.06
22830;BME280;11581;51.250;6.778;2022-11-20T06:12:11;100769.81;;;6.61;67.45
22830;BME280;11581;51.250;6.778;2022-11-20T06:14:38;100765.50;;;6.60;67.21
22830;BME280;11581;51.250;6.778;2022-11-20T06:17:05;100538.28;;;5.22;67.10
22830;BME280;11581;51.250;6.778;2022-11-20T06:19:32;100716.28;;;6.25;67.37
22830;BME280;11581;51.250;6.778;2022-11-20T06:22:00;100761.66;;;6.53;67.33
22830;BME280;11581;51.250;6.778;2022-11-20T06:24:27;100759.88;;;6.54;67.43
22830;BME280;11581;51.250;6.778;2022-11-20T06:26:54;100717.97;;;6.26;67.28
22830;BME280;11581;51.250;6.778;2022-11-20T06:29:21;100766.22;;;6.51;67.52
22830;BME280;11581;51.250;6.778;2022-11-20T06:31:48;100769.59;;;6.53;67.60
22830;BME280;11581;51.250;6.778;2022-11-20T06:34:15;100778.41;;;6.54;67.85
22830;BME280;11581;51.250;6.778;2022-11-20T06:36:41;100753.22;;;6.37;67.70
22830;BME280;11581;51.250;6.778;2022-11-20T06:39:10;100781.66;;;6.57;67.63
22830;BME280;11581;51.250;6.778;2022-11-20T06:41:36;100779.72;;;6.59;67.57
22830;BME280;11581;51.250;6.778;2022-11-20T06:44:04;100790.09;;;6.62;67.93
22830;BME280;11581;51.250;6.778;2022-11-20T06:46:31;100782.97;;;6.63;68.07
22830;BME280;11581;51.250;6.778;2022-11-20T06:48:58;100715.69;;;6.21;67.81
22830;BME280;11581;51.250;6.778;2022-11-20T06:51:28;100787.66;;;6.70;67.68
22830;BME280;11581;51.250;6.778;2022-11-20T06:53:55;100782.97;;;6.74;67.85
22830;BME280;11581;51.250;6.778;2022-11-20T06:56:24;100731.91;;;6.50;67.27
22830;BME280;11581;51.250;6.778;2022-11-20T06:58:56;100742.38;;;6.62;67.22
22830;BME280;11581;51.250;6.778;2022-11-20T07:01:22;100769.09;;;6.81;67.24
22830;BME280;11581;51.250;6.778;2022-11-20T07:03:49;100761.41;;;6.67;66.90
22830;BME280;11581;51.250;6.778;2022-11-20T07:06:16;100792.22;;;6.79;66.72
22830;BME280;11581;51.250;6.778;2022-11-20T07:08:45;100591.25;;;5.55;66.26
22830;BME280;11581;51.250;6.778;2022-11-20T07:11:12;100639.38;;;5.82;66.12
22830;BME280;11581;51.250;6.778;2022-11-20T07:13:41;100801.16;;;6.67;65.83
22830;BME280;11581;51.250;6.778;2022-11-20T07:16:08;100798.97;;;6.61;66.28
22830;BME280;11581;51.250;6.778;2022-11-20T07:18:36;100802.84;;;6.57;66.39
22830;BME280;11581;51.250;6.778;2022-11-20T07:21:08;100853.44;;;6.54;66.49
22830;BME280;11581;51.250;6.778;2022-11-20T07:23:38;100801.66;;;6.50;67.17
22830;BME280;11581;51.250;6.778;2022-11-20T07:26:05;100728.53;;;6.04;67.40
22830;BME280;11581;51.250;6.778;2022-11-20T07:28:32;100749.97;;;6.23;67.88
22830;BME280;11581;51.250;6.778;2022-11-20T07:31:01;100758.53;;;6.26;67.64
22830;BME280;11581;51.250;6.778;2022-11-20T07:33:27;100821.63;;;6.54;67.96
22830;BME280;11581;51.250;6.778;2022-11-20T07:35:54;100795.88;;;6.56;68.08
22830;BME280;11581;51.250;6.778;2022-11-20T07:38:21;100795.63;;;6.59;68.70
22830;BME280;11581;51.250;6.778;2022-11-20T07:40:48;100773.22;;;6.52;69.26
22830;BME280;11581;51.250;6.778;2022-11-20T07:43:15;100735.06;;;6.44;69.29
22830;BME280;11581;51.250;6.778;2022-11-20T07:45:42;100759.47;;;6.69;68.68
22830;BME280;11581;51.250;6.778;2022-11-20T07:48:10;100786.28;;;6.98;67.74
22830;BME280;11581;51.250;6.778;2022-11-20T07:50:37;100782.91;;;7.07;67.94
22830;BME280;11581;51.250;6.778;2022-11-20T07:53:04;100785.06;;;7.13;67.29
22830;BME280;11581;51.250;6.778;2022-11-20T07:55:32;100788.03;;;7.20;67.15
22830;BME280;11581;51.250;6.778;2022-11-20T07:58:00;100790.19;;;7.26;67.16
22830;BME280;11581;51.250;6.778;2022-11-20T08:00:27;100656.53;;;6.54;67.25
22830;BME280;11581;51.250;6.778;2022-11-20T08:02:53;100715.31;;;6.90;67.17
22830;BME280;11581;51.250;6.778;2022-11-20T08:05:24;100780.97;;;7.41;66.71
22830;BME280;11581;51.250;6.778;2022-11-20T08:07:52;100749.78;;;7.33;67.03
22830;BME280;11581;51.250;6.778;2022-11-20T08:10:19;100766.56;;;7.54;67.15
22830;BME280;11581;51.250;6.778;2022-11-20T08:12:47;100765.09;;;7.61;67.41
22830;BME280;11581;51.250;6.778;2022-11-20T08:15:31;100746.91;;;7.57;67.02
22830;BME280;11581;51.250;6.778;2022-11-20T08:18:03;100716.78;;;7.47;66.00
22830;BME280;11581;51.250;6.778;2022-11-20T08:20:32;100770.16;;;7.85;66.74
22830;BME280;11581;51.250;6.778;2022-11-20T08:22:59;100663.13;;;7.23;66.80
22830;BME280;11581;51.250;6.778;2022-11-20T08:25:27;100730.38;;;7.74;66.53
22830;BME280;11581;51.250;6.778;2022-11-20T08:27:57;100762.13;;;7.96;66.00
22830;BME280;11581;51.250;6.778;2022-11-20T08:30:24;100782.88;;;8.11;66.69
22830;BME280;11581;51.250;6.778;2022-11-20T08:32:51;100740.28;;;7.92;66.65
22830;BME280;11581;51.250;6.778;2022-11-20T08:35:18;100739.63;;;8.00;66.55
22830;BME280;11581;51.250;6.778;2022-11-20T08:37:47;100786.53;;;8.31;65.22
22830;BME280;11581;51.250;6.778;2022-11-20T08:40:15;100786.00;;;8.37;65.98
22830;BME280;11581;51.250;6.778;2022-11-20T08:42:50;100793.47;;;8.43;63.61
22830;BME280;11581;51.250;6.778;2022-11-20T08:45:18;100757.72;;;8.36;65.28
22830;BME280;11581;51.250;6.778;2022-11-20T08:47:45;100766.16;;;8.41;65.38
22830;BME280;11581;51.250;6.778;2022-11-20T08:50:13;100782.00;;;8.52;64.75
22830;BME280;11581;51.250;6.778;2022-11-20T08:52:42;100718.06;;;8.14;64.62
22830;BME280;11581;51.250;6.778;2022-11-20T08:55:12;100765.56;;;8.37;64.03
22830;BME280;11581;51.250;6.778;2022-11-20T08:57:39;100735.59;;;8.26;64.77
22830;BME280;11581;51.250;6.778;2022-11-20T09:00:07;100780.59;;;8.48;64.10
22830;BME280;11581;51.250;6.778;2022-11-20T09:02:34;100742.50;;;8.17;64.56
22830;BME280;11581;51.250;6.778;2022-11-20T09:05:01;100781.66;;;8.36;64.39
22830;BME280;11581;51.250;6.778;2022-11-20T09:07:29;100734.94;;;8.13;64.96
22830;BME280;11581;51.250;6.778;2022-11-20T09:09:56;100634.78;;;7.44;64.64
22830;BME280;11581;51.250;6.778;2022-11-20T09:12:25;100774.78;;;8.33;64.60
22830;BME280;11581;51.250;6.778;2022-11-20T09:14:52;100717.56;;;7.99;64.89
22830;BME280;11581;51.250;6.778;2022-11-20T09:17:19;100753.50;;;8.24;65.29
22830;BME280;11581;51.250;6.778;2022-11-20T09:19:46;100699.88;;;7.89;65.35
22830;BME280;11581;51.250;6.778;2022-11-20T09:22:14;100752.66;;;8.23;65.65
22830;BME280;11581;51.250;6.778;2022-11-20T09:24:42;100754.38;;;8.34;65.93
22830;BME280;11581;51.250;6.778;2022-11-20T09:27:08;100750.47;;;8.38;66.03
22830;BME280;11581;51.250;6.778;2022-11-20T09:29:39;100659.31;;;7.87;65.89
22830;BME280;11581;51.250;6.778;2022-11-20T09:32:07;100717.34;;;8.21;65.66
22830;BME280;11581;51.250;6.778;2022-11-20T09:34:34;100719.78;;;8.24;65.53
22830;BME280;11581;51.250;6.778;2022-11-20T09:37:00;100659.94;;;8.00;65.42
22830;BME280;11581;51.250;6.778;2022-11-20T09:39:27;100753.63;;;8.52;65.36
22830;BME280;11581;51.250;6.778;2022-11-20T09:42:11;100755.41;;;8.52;63.39
22830;BME280;11581;51.250;6.778;2022-11-20T09:47:37;100751.53;;;8.56;64.73
22830;BME280;11581;51.250;6.778;2022-11-20T09:50:24;100744.25;;;8.58;63.67
22830;BME280;11581;51.250;6.778;2022-11-20T09:53:03;100707.97;;;8.38;64.36
22830;BME280;11581;51.250;6.778;2022-11-20T09:55:33;100748.09;;;8.65;65.65
22830;BME280;11581;51.250;6.778;2022-11-20T09:58:01;100765.56;;;8.67;66.05
22830;BME280;11581;51.250;6.778;2022-11-20T10:00:34;100752.16;;;8.69;64.98
22830;BME280;11581;51.250;6.778;2022-11-20T10:03:06;100719.78;;;8.54;64.94
22830;BME280;11581;51.250;6.778;2022-11-20T10:05:41;100688.94;;;8.33;64.53
22830;BME280;11581;51.250;6.778;2022-11-20T10:08:16;100758.88;;;8.73;63.68
22830;BME280;11581;51.250;6.778;2022-11-20T10:10:47;100732.81;;;8.67;64.93
22830;BME280;11581;51.250;6.778;2022-11-20T10:13:23;100748.69;;;8.78;63.77
22830;BME280;11581;51.250;6.778;2022-11-20T10:16:06;100717.84;;;8.66;63.23
22830;BME280;11581;51.250;6.778;2022-11-20T10:18:52;100612.59;;;8.05;62.68
22830;BME280;11581;51.250;6.778;2022-11-20T10:21:30;100737.06;;;8.79;64.10
22830;BME280;11581;51.250;6.778;2022-11-20T10:24:20;100730.88;;;8.78;63.22
22830;BME280;11581;51.250;6.778;2022-11-20T10:26:58;100718.44;;;8.79;63.51
22830;BME280;11581;51.250;6.778;2022-11-20T10:29:29;100651.44;;;8.36;64.54
22830;BME280;11581;51.250;6.778;2022-11-20T10:32:03;100706.13;;;8.78;64.18
22830;BME280;11581;51.250;6.778;2022-11-20T10:34:35;100654.00;;;8.47;64.66
22830;BME280;11581;51.250;6.778;2022-11-20T10:37:12;100652.88;;;8.40;63.71
22830;BME280;11581;51.250;6.778;2022-11-20T10:39:49;100622.78;;;8.30;63.22
22830;BME280;11581;51.250;6.778;2022-11-20T10:42:26;100644.19;;;8.38;62.76
22830;BME280;11581;51.250;6.778;2022-11-20T10:45:01;100675.59;;;8.63;63.32
22830;BME280;11581;51.250;6.778;2022-11-20T10:47:31;100671.94;;;8.64;64.10
22830;BME280;11581;51.250;6.778;2022-11-20T10:50:02;100685.53;;;8.70;63.68
22830;BME280;11581;51.250;6.778;2022-11-20T10:52:41;100641.25;;;8.41;63.30
22830;BME280;11581;51.250;6.778;2022-11-20T10:55:22;100681.63;;;8.65;63.41
22830;BME280;11581;51.250;6.778;2022-11-20T10:57:54;100637.19;;;8.37;64.40
22830;BME280;11581;51.250;6.778;2022-11-20T11:00:30;100689.16;;;8.60;65.44
22830;BME280;11581;51.250;6.778;2022-11-20T11:03:00;100668.88;;;8.59;65.14
22830;BME280;11581;51.250;6.778;2022-11-20T11:05:36;100656.38;;;8.50;63.91
22830;BME280;11581;51.250;6.778;2022-11-20T11:08:07;100637.75;;;8.40;65.00
22830;BME280;11581;51.250;6.778;2022-11-20T11:10:42;100659.31;;;8.56;65.18
22830;BME280;11581;51.250;6.778;2022-11-20T11:13:19;100647.03;;;8.55;63.88
22830;BME280;11581;51.250;6.778;2022-11-20T11:15:47;100620.97;;;8.40;65.74
22830;BME280;11581;51.250;6.778;2022-11-20T11:18:25;100619.00;;;8.42;64.09
22830;BME280;11581;51.250;6.778;2022-11-20T11:20:53;100645.63;;;8.61;65.88
22830;BME280;11581;51.250;6.778;2022-11-20T11:23:35;100598.28;;;8.36;64.22
22830;BME280;11581;51.250;6.778;2022-11-20T11:26:03;100634.44;;;8.67;66.08
22830;BME280;11581;51.250;6.778;2022-11-20T11:28:31;100632.38;;;8.70;65.74
22830;BME280;11581;51.250;6.778;2022-11-20T11:30:59;100626.06;;;8.71;65.66
22830;BME280;11581;51.250;6.778;2022-11-20T11:33:29;100626.06;;;8.71;64.92
22830;BME280;11581;51.250;6.778;2022-11-20T11:35:58;100602.81;;;8.64;64.95
22830;BME280;11581;51.250;6.778;2022-11-20T11:38:30;100518.53;;;8.17;64.36
22830;BME280;11581;51.250;6.778;2022-11-20T11:40:59;100584.63;;;8.59;65.55
22830;BME280;11581;51.250;6.778;2022-11-20T11:43:29;100607.03;;;8.76;64.96
22830;BME280;11581;51.250;6.778;2022-11-20T11:46:28;100603.38;;;8.77;63.52
22830;BME280;11581;51.250;6.778;2022-11-20T11:49:00;100598.91;;;8.77;64.33
22830;BME280;11581;51.250;6.778;2022-11-20T11:51:33;100600.72;;;8.77;64.04
22830;BME280;11581;51.250;6.778;2022-11-20T11:54:08;100564.19;;;8.69;63.89
22830;BME280;11581;51.250;6.778;2022-11-20T11:56:39;100577.63;;;8.77;64.92
22830;BME280;11581;51.250;6.778;2022-11-20T11:59:11;100571.47;;;8.77;63.96
22830;BME280;11581;51.250;6.778;2022-11-20T12:01:44;100563.63;;;8.75;64.12
22830;BME280;11581;51.250;6.778;2022-11-20T12:04:20;100529.91;;;8.57;63.75
22830;BME280;11581;51.250;6.778;2022-11-20T12:06:53;100544.03;;;8.67;64.89
22830;BME280;11581;51.250;6.778;2022-11-20T12:09:34;100560.84;;;8.77;63.85
22830;BME280;11581;51.250;6.778;2022-11-20T12:12:08;100477.44;;;8.30;65.09
22830;BME280;11581;51.250;6.778;2022-11-20T12:14:41;100457.88;;;8.22;65.45
22830;BME280;11581;51.250;6.778;2022-11-20T12:17:11;100429.06;;;8.08;65.37
22830;BME280;11581;51.250;6.778;2022-11-20T12:19:40;100556.78;;;8.92;64.61
22830;BME280;11581;51.250;6.778;2022-11-20T12:22:16;100556.63;;;8.93;63.78
22830;BME280;11581;51.250;6.778;2022-11-20T12:24:53;100555.50;;;8.96;64.28
22830;BME280;11581;51.250;6.778;2022-11-20T12:27:53;100476.03;;;8.55;63.47
22830;BME280;11581;51.250;6.778;2022-11-20T12:30:21;100489.75;;;8.60;65.58
22830;BME280;11581;51.250;6.778;2022-11-20T12:33:08;100537.31;;;9.01;63.41
22830;BME280;11581;51.250;6.778;2022-11-20T12:35:53;100529.63;;;8.98;63.92
22830;BME280;11581;51.250;6.778;2022-11-20T12:38:54;100531.56;;;9.05;63.70
22830;BME280;11581;51.250;6.778;2022-11-20T12:41:32;100466.56;;;8.43;64.41
22830;BME280;11581;51.250;6.778;2022-11-20T12:44:35;100513.47;;;9.09;63.97
22830;BME280;11581;51.250;6.778;2022-11-20T12:47:28;100516.81;;;9.21;64.77
22830;BME280;11581;51.250;6.778;2022-11-20T12:50:08;100521.69;;;9.25;64.38
22830;BME280;11581;51.250;6.778;2022-11-20T12:52:46;100514.41;;;9.27;64.30
22830;BME280;11581;51.250;6.778;2022-11-20T12:55:21;100516.78;;;9.30;64.33
22830;BME280;11581;51.250;6.778;2022-11-20T12:57:56;100503.50;;;9.30;64.21
22830;BME280;11581;51.250;6.778;2022-11-20T13:00:26;100472.28;;;9.13;65.21
22830;BME280;11581;51.250;6.778;2022-11-20T13:03:21;100465.44;;;9.10;63.39
22830;BME280;11581;51.250;6.778;2022-11-20T13:05:59;100485.72;;;9.21;64.43
22830;BME280;11581;51.250;6.778;2022-11-20T13:08:36;100461.69;;;9.03;64.60
22830;BME280;11581;51.250;6.778;2022-11-20T13:11:11;100479.47;;;9.13;64.47
22830;BME280;11581;51.250;6.778;2022-11-20T13:13:52;100462.84;;;9.01;64.44
22830;BME280;11581;51.250;6.778;2022-11-20T13:16:28;100370.59;;;8.46;65.00
22830;BME280;11581;51.250;6.778;2022-11-20T13:19:01;100478.66;;;9.02;65.87
22830;BME280;11581;51.250;6.778;2022-11-20T13:21:36;100464.78;;;8.99;65.73